ノヴォシビルスク の空港の天気 - METARとTAF

トルマチェヴォ空港(ノヴォシビルスク) ( UNNT / OVB ) - ロシア ノヴォシビルスク
飛行場実況気象(Metar)
観測時間12/17 06:00 OMST (12/17 00:00 UTC)
風向・風速南 3m/s
視程10km以上
天気現象
なし
気温-22℃
湿度84%
気圧1044hPa
METARUNNT 170000Z 18003MPS CAVOK M22/M24 Q1044 R25/810155 R34/810160 NOSIG RMK QFE773/1031
過去の天気等 Google飛行場航空写真 Wunderground天気予報

過去48時間のMETAR

飛行場予報(TAF)
発表時間: 12/17 05:00 OMST (12/16 23:00 UTC)
予報対象時間: 17日6時 OMST ~ 18日6時 OMST
風向・風速南 3m/s 瞬間風速 8m/s
視程10km以上
全天の8割程度の雲 雲底高度 610m
TAF UNNT 162300Z 1700/1724 17003G08MPS 9999 BKN020